sensor_id;sensor_type;location;lat;lon;timestamp;temperature;humidity
68485;DHT22;55472;50.060;21.960;2022-08-01T00:01:46;16.20;94.60
68485;DHT22;55472;50.060;21.960;2022-08-01T00:04:12;16.20;94.70
68485;DHT22;55472;50.060;21.960;2022-08-01T00:06:38;16.20;95.00
68485;DHT22;55472;50.060;21.960;2022-08-01T00:09:04;16.20;95.00
68485;DHT22;55472;50.060;21.960;2022-08-01T00:11:30;16.20;95.10
68485;DHT22;55472;50.060;21.960;2022-08-01T00:13:56;16.20;95.40
68485;DHT22;55472;50.060;21.960;2022-08-01T00:16:22;16.20;95.60
68485;DHT22;55472;50.060;21.960;2022-08-01T00:18:49;16.20;95.60
68485;DHT22;55472;50.060;21.960;2022-08-01T00:21:16;16.20;95.40
68485;DHT22;55472;50.060;21.960;2022-08-01T00:23:43;16.20;95.70
68485;DHT22;55472;50.060;21.960;2022-08-01T00:26:12;16.20;95.40
68485;DHT22;55472;50.060;21.960;2022-08-01T00:28:38;16.20;95.30
68485;DHT22;55472;50.060;21.960;2022-08-01T00:31:05;16.10;95.40
68485;DHT22;55472;50.060;21.960;2022-08-01T00:33:30;16.10;95.40
68485;DHT22;55472;50.060;21.960;2022-08-01T00:35:56;16.20;95.50
68485;DHT22;55472;50.060;21.960;2022-08-01T00:38:22;16.10;95.60
68485;DHT22;55472;50.060;21.960;2022-08-01T00:40:48;16.10;95.20
68485;DHT22;55472;50.060;21.960;2022-08-01T00:43:15;16.10;95.50
68485;DHT22;55472;50.060;21.960;2022-08-01T00:45:41;16.10;95.50
68485;DHT22;55472;50.060;21.960;2022-08-01T00:48:07;16.10;95.40
68485;DHT22;55472;50.060;21.960;2022-08-01T00:50:34;16.10;95.20
68485;DHT22;55472;50.060;21.960;2022-08-01T00:53:01;16.20;95.20
68485;DHT22;55472;50.060;21.960;2022-08-01T00:55:28;16.10;95.10
68485;DHT22;55472;50.060;21.960;2022-08-01T00:57:55;16.20;95.10
68485;DHT22;55472;50.060;21.960;2022-08-01T01:00:21;16.10;95.10
68485;DHT22;55472;50.060;21.960;2022-08-01T01:02:47;16.10;95.20
68485;DHT22;55472;50.060;21.960;2022-08-01T01:05:13;16.10;95.30
68485;DHT22;55472;50.060;21.960;2022-08-01T01:10:40;16.10;95.10
68485;DHT22;55472;50.060;21.960;2022-08-01T01:13:23;16.10;94.90
68485;DHT22;55472;50.060;21.960;2022-08-01T01:16:03;16.10;95.00
68485;DHT22;55472;50.060;21.960;2022-08-01T01:18:35;16.10;95.40
68485;DHT22;55472;50.060;21.960;2022-08-01T01:24:11;16.10;95.10
68485;DHT22;55472;50.060;21.960;2022-08-01T01:27:02;16.10;95.30
68485;DHT22;55472;50.060;21.960;2022-08-01T01:29:40;16.10;95.40
68485;DHT22;55472;50.060;21.960;2022-08-01T01:32:14;16.10;95.10
68485;DHT22;55472;50.060;21.960;2022-08-01T01:34:44;16.10;95.50
68485;DHT22;55472;50.060;21.960;2022-08-01T01:37:15;16.10;95.40
68485;DHT22;55472;50.060;21.960;2022-08-01T01:39:44;16.10;95.40
68485;DHT22;55472;50.060;21.960;2022-08-01T01:42:13;16.10;95.20
68485;DHT22;55472;50.060;21.960;2022-08-01T01:44:40;16.10;95.30
68485;DHT22;55472;50.060;21.960;2022-08-01T01:47:07;16.10;95.40
68485;DHT22;55472;50.060;21.960;2022-08-01T01:49:33;16.10;95.20
68485;DHT22;55472;50.060;21.960;2022-08-01T01:52:00;16.10;95.20
68485;DHT22;55472;50.060;21.960;2022-08-01T01:54:30;16.10;95.20
68485;DHT22;55472;50.060;21.960;2022-08-01T01:57:01;16.00;95.50
68485;DHT22;55472;50.060;21.960;2022-08-01T01:59:32;16.00;95.50
68485;DHT22;55472;50.060;21.960;2022-08-01T02:02:03;16.00;95.50
68485;DHT22;55472;50.060;21.960;2022-08-01T02:04:31;16.00;95.50
68485;DHT22;55472;50.060;21.960;2022-08-01T02:06:59;16.00;95.60
68485;DHT22;55472;50.060;21.960;2022-08-01T02:09:27;16.00;95.80
68485;DHT22;55472;50.060;21.960;2022-08-01T02:11:55;16.00;95.80
68485;DHT22;55472;50.060;21.960;2022-08-01T02:14:22;16.00;95.70
68485;DHT22;55472;50.060;21.960;2022-08-01T02:16:50;16.00;95.80
68485;DHT22;55472;50.060;21.960;2022-08-01T02:19:19;16.00;95.70
68485;DHT22;55472;50.060;21.960;2022-08-01T02:24:35;16.10;95.40
68485;DHT22;55472;50.060;21.960;2022-08-01T02:27:08;16.10;95.50
68485;DHT22;55472;50.060;21.960;2022-08-01T02:29:50;16.10;95.80
68485;DHT22;55472;50.060;21.960;2022-08-01T02:32:37;16.10;95.60
68485;DHT22;55472;50.060;21.960;2022-08-01T02:35:19;16.10;95.50
68485;DHT22;55472;50.060;21.960;2022-08-01T02:37:48;16.10;95.50
68485;DHT22;55472;50.060;21.960;2022-08-01T02:40:16;16.10;95.40
68485;DHT22;55472;50.060;21.960;2022-08-01T02:42:49;16.10;95.60
68485;DHT22;55472;50.060;21.960;2022-08-01T02:45:22;16.10;95.30
68485;DHT22;55472;50.060;21.960;2022-08-01T02:47:51;16.10;95.40
68485;DHT22;55472;50.060;21.960;2022-08-01T02:50:20;16.10;95.40
68485;DHT22;55472;50.060;21.960;2022-08-01T02:52:50;16.10;95.20
68485;DHT22;55472;50.060;21.960;2022-08-01T02:55:18;16.10;95.40
68485;DHT22;55472;50.060;21.960;2022-08-01T02:57:46;16.10;95.20
68485;DHT22;55472;50.060;21.960;2022-08-01T03:00:15;16.20;95.50
68485;DHT22;55472;50.060;21.960;2022-08-01T03:02:43;16.20;95.30
68485;DHT22;55472;50.060;21.960;2022-08-01T03:05:12;16.20;95.20
68485;DHT22;55472;50.060;21.960;2022-08-01T03:07:39;16.10;95.20
68485;DHT22;55472;50.060;21.960;2022-08-01T03:10:06;16.20;95.20
68485;DHT22;55472;50.060;21.960;2022-08-01T03:12:33;16.20;95.10
68485;DHT22;55472;50.060;21.960;2022-08-01T03:15:00;16.20;95.10
68485;DHT22;55472;50.060;21.960;2022-08-01T03:17:29;16.20;94.90
68485;DHT22;55472;50.060;21.960;2022-08-01T03:19:57;16.20;94.90
68485;DHT22;55472;50.060;21.960;2022-08-01T03:22:26;16.20;95.00
68485;DHT22;55472;50.060;21.960;2022-08-01T03:24:54;16.20;95.10
68485;DHT22;55472;50.060;21.960;2022-08-01T03:27:23;16.20;95.00
68485;DHT22;55472;50.060;21.960;2022-08-01T03:29:51;16.20;94.80
68485;DHT22;55472;50.060;21.960;2022-08-01T03:32:19;16.20;94.80
68485;DHT22;55472;50.060;21.960;2022-08-01T03:34:46;16.20;95.00
68485;DHT22;55472;50.060;21.960;2022-08-01T03:37:27;16.20;94.90
68485;DHT22;55472;50.060;21.960;2022-08-01T03:40:02;16.20;94.90
68485;DHT22;55472;50.060;21.960;2022-08-01T03:42:33;16.20;94.90
68485;DHT22;55472;50.060;21.960;2022-08-01T03:45:07;16.20;94.80
68485;DHT22;55472;50.060;21.960;2022-08-01T03:47:39;16.20;94.90
68485;DHT22;55472;50.060;21.960;2022-08-01T03:50:10;16.20;94.70
68485;DHT22;55472;50.060;21.960;2022-08-01T03:52:39;16.20;94.90
68485;DHT22;55472;50.060;21.960;2022-08-01T03:55:07;16.20;94.90
68485;DHT22;55472;50.060;21.960;2022-08-01T03:57:34;16.20;94.80
68485;DHT22;55472;50.060;21.960;2022-08-01T04:00:01;16.20;95.00
68485;DHT22;55472;50.060;21.960;2022-08-01T04:02:32;16.20;95.00
68485;DHT22;55472;50.060;21.960;2022-08-01T04:04:59;16.20;94.80
68485;DHT22;55472;50.060;21.960;2022-08-01T04:07:30;16.20;95.10
68485;DHT22;55472;50.060;21.960;2022-08-01T04:09:57;16.20;94.80
68485;DHT22;55472;50.060;21.960;2022-08-01T04:12:24;16.20;94.90
68485;DHT22;55472;50.060;21.960;2022-08-01T04:14:50;16.20;94.80
68485;DHT22;55472;50.060;21.960;2022-08-01T04:17:17;16.20;94.60
68485;DHT22;55472;50.060;21.960;2022-08-01T04:19:44;16.20;94.50
68485;DHT22;55472;50.060;21.960;2022-08-01T04:22:11;16.20;94.50
68485;DHT22;55472;50.060;21.960;2022-08-01T04:24:39;16.20;94.60
68485;DHT22;55472;50.060;21.960;2022-08-01T04:27:13;16.20;94.40
68485;DHT22;55472;50.060;21.960;2022-08-01T04:29:42;16.20;94.60
68485;DHT22;55472;50.060;21.960;2022-08-01T04:32:11;16.20;94.50
68485;DHT22;55472;50.060;21.960;2022-08-01T04:34:39;16.20;94.50
68485;DHT22;55472;50.060;21.960;2022-08-01T04:37:11;16.20;94.20
68485;DHT22;55472;50.060;21.960;2022-08-01T04:39:40;16.20;94.40
68485;DHT22;55472;50.060;21.960;2022-08-01T04:42:07;16.20;94.20
68485;DHT22;55472;50.060;21.960;2022-08-01T04:44:34;16.20;94.20
68485;DHT22;55472;50.060;21.960;2022-08-01T04:47:01;16.20;93.90
68485;DHT22;55472;50.060;21.960;2022-08-01T04:49:31;16.20;94.10
68485;DHT22;55472;50.060;21.960;2022-08-01T04:51:57;16.20;94.00
68485;DHT22;55472;50.060;21.960;2022-08-01T04:54:29;16.20;93.90
68485;DHT22;55472;50.060;21.960;2022-08-01T04:56:59;16.20;93.90
68485;DHT22;55472;50.060;21.960;2022-08-01T04:59:26;16.30;93.70
68485;DHT22;55472;50.060;21.960;2022-08-01T05:02:11;16.30;94.00
68485;DHT22;55472;50.060;21.960;2022-08-01T05:04:53;16.30;94.00
68485;DHT22;55472;50.060;21.960;2022-08-01T05:07:21;16.30;94.00
68485;DHT22;55472;50.060;21.960;2022-08-01T05:09:47;16.40;94.10
68485;DHT22;55472;50.060;21.960;2022-08-01T05:12:13;16.40;94.20
68485;DHT22;55472;50.060;21.960;2022-08-01T05:14:39;16.50;94.10
68485;DHT22;55472;50.060;21.960;2022-08-01T05:17:07;16.50;93.80
68485;DHT22;55472;50.060;21.960;2022-08-01T05:19:38;16.50;93.90
68485;DHT22;55472;50.060;21.960;2022-08-01T05:22:07;16.50;93.50
68485;DHT22;55472;50.060;21.960;2022-08-01T05:24:35;16.60;93.30
68485;DHT22;55472;50.060;21.960;2022-08-01T05:27:03;16.60;93.20
68485;DHT22;55472;50.060;21.960;2022-08-01T05:29:30;16.60;93.20
68485;DHT22;55472;50.060;21.960;2022-08-01T05:31:56;16.60;92.90
68485;DHT22;55472;50.060;21.960;2022-08-01T05:34:23;16.60;92.60
68485;DHT22;55472;50.060;21.960;2022-08-01T05:36:50;16.50;92.90
68485;DHT22;55472;50.060;21.960;2022-08-01T05:39:16;16.50;92.90
68485;DHT22;55472;50.060;21.960;2022-08-01T05:41:42;16.60;92.70
68485;DHT22;55472;50.060;21.960;2022-08-01T05:44:08;16.60;92.60
68485;DHT22;55472;50.060;21.960;2022-08-01T05:46:34;16.60;93.20
68485;DHT22;55472;50.060;21.960;2022-08-01T05:49:02;16.60;93.00
68485;DHT22;55472;50.060;21.960;2022-08-01T05:51:28;16.60;93.20
68485;DHT22;55472;50.060;21.960;2022-08-01T05:53:55;16.60;92.80
68485;DHT22;55472;50.060;21.960;2022-08-01T05:56:21;16.60;93.00
68485;DHT22;55472;50.060;21.960;2022-08-01T05:58:48;16.60;93.20
68485;DHT22;55472;50.060;21.960;2022-08-01T06:01:15;16.60;93.20
68485;DHT22;55472;50.060;21.960;2022-08-01T06:03:42;16.60;93.20
68485;DHT22;55472;50.060;21.960;2022-08-01T06:06:08;16.60;93.30
68485;DHT22;55472;50.060;21.960;2022-08-01T06:08:34;16.60;93.60
68485;DHT22;55472;50.060;21.960;2022-08-01T06:11:00;16.60;93.50
68485;DHT22;55472;50.060;21.960;2022-08-01T06:13:26;16.60;93.20
68485;DHT22;55472;50.060;21.960;2022-08-01T06:15:52;16.60;92.90
68485;DHT22;55472;50.060;21.960;2022-08-01T06:18:19;16.60;93.10
68485;DHT22;55472;50.060;21.960;2022-08-01T06:20:46;16.50;92.90
68485;DHT22;55472;50.060;21.960;2022-08-01T06:23:13;16.50;93.10
68485;DHT22;55472;50.060;21.960;2022-08-01T06:25:41;16.40;93.30
68485;DHT22;55472;50.060;21.960;2022-08-01T06:28:08;16.40;93.60
68485;DHT22;55472;50.060;21.960;2022-08-01T06:30:34;16.40;93.80
68485;DHT22;55472;50.060;21.960;2022-08-01T06:33:00;16.40;94.00
68485;DHT22;55472;50.060;21.960;2022-08-01T06:35:27;16.40;94.10
68485;DHT22;55472;50.060;21.960;2022-08-01T06:37:57;16.40;94.20
68485;DHT22;55472;50.060;21.960;2022-08-01T06:40:23;16.50;93.90
68485;DHT22;55472;50.060;21.960;2022-08-01T06:42:50;16.50;93.90
68485;DHT22;55472;50.060;21.960;2022-08-01T06:45:16;16.50;93.60
68485;DHT22;55472;50.060;21.960;2022-08-01T06:47:44;16.50;93.30
68485;DHT22;55472;50.060;21.960;2022-08-01T06:50:10;16.50;93.50
68485;DHT22;55472;50.060;21.960;2022-08-01T06:52:37;16.50;93.60
68485;DHT22;55472;50.060;21.960;2022-08-01T06:55:04;16.60;93.50
68485;DHT22;55472;50.060;21.960;2022-08-01T06:57:30;16.60;93.30
68485;DHT22;55472;50.060;21.960;2022-08-01T06:59:57;16.70;92.80
68485;DHT22;55472;50.060;21.960;2022-08-01T07:02:23;16.70;92.60
68485;DHT22;55472;50.060;21.960;2022-08-01T07:04:49;16.70;92.70
68485;DHT22;55472;50.060;21.960;2022-08-01T07:07:15;16.80;92.30
68485;DHT22;55472;50.060;21.960;2022-08-01T07:09:44;16.80;92.40
68485;DHT22;55472;50.060;21.960;2022-08-01T07:12:16;16.80;92.20
68485;DHT22;55472;50.060;21.960;2022-08-01T07:14:42;16.90;92.20
68485;DHT22;55472;50.060;21.960;2022-08-01T07:17:07;16.90;91.70
68485;DHT22;55472;50.060;21.960;2022-08-01T07:19:33;17.00;91.40
68485;DHT22;55472;50.060;21.960;2022-08-01T07:21:59;17.00;91.60
68485;DHT22;55472;50.060;21.960;2022-08-01T07:24:25;17.10;92.00
68485;DHT22;55472;50.060;21.960;2022-08-01T07:26:51;17.10;91.80
68485;DHT22;55472;50.060;21.960;2022-08-01T07:29:23;17.20;91.20
68485;DHT22;55472;50.060;21.960;2022-08-01T07:31:53;17.20;91.10
68485;DHT22;55472;50.060;21.960;2022-08-01T07:34:21;17.30;90.40
68485;DHT22;55472;50.060;21.960;2022-08-01T07:36:47;17.30;89.40
68485;DHT22;55472;50.060;21.960;2022-08-01T07:39:13;17.30;89.10
68485;DHT22;55472;50.060;21.960;2022-08-01T07:41:39;17.40;89.10
68485;DHT22;55472;50.060;21.960;2022-08-01T07:44:05;17.40;89.60
68485;DHT22;55472;50.060;21.960;2022-08-01T07:46:31;17.50;89.10
68485;DHT22;55472;50.060;21.960;2022-08-01T07:48:57;17.50;88.70
68485;DHT22;55472;50.060;21.960;2022-08-01T07:51:23;17.50;88.80
68485;DHT22;55472;50.060;21.960;2022-08-01T07:53:49;17.60;88.50
68485;DHT22;55472;50.060;21.960;2022-08-01T07:56:15;17.60;88.30
68485;DHT22;55472;50.060;21.960;2022-08-01T07:58:43;17.70;88.40
68485;DHT22;55472;50.060;21.960;2022-08-01T08:01:09;17.80;88.00
68485;DHT22;55472;50.060;21.960;2022-08-01T08:03:35;18.00;88.00
68485;DHT22;55472;50.060;21.960;2022-08-01T08:06:01;18.10;87.70
68485;DHT22;55472;50.060;21.960;2022-08-01T08:08:27;18.20;87.10
68485;DHT22;55472;50.060;21.960;2022-08-01T08:10:53;18.30;86.20
68485;DHT22;55472;50.060;21.960;2022-08-01T08:13:20;18.30;85.30
68485;DHT22;55472;50.060;21.960;2022-08-01T08:15:46;18.30;84.10
68485;DHT22;55472;50.060;21.960;2022-08-01T08:18:12;18.30;84.30
68485;DHT22;55472;50.060;21.960;2022-08-01T08:20:38;18.30;84.40
68485;DHT22;55472;50.060;21.960;2022-08-01T08:23:04;18.30;84.60
68485;DHT22;55472;50.060;21.960;2022-08-01T08:25:50;18.40;85.00
68485;DHT22;55472;50.060;21.960;2022-08-01T08:28:16;18.60;85.10
68485;DHT22;55472;50.060;21.960;2022-08-01T08:30:42;18.80;85.00
68485;DHT22;55472;50.060;21.960;2022-08-01T08:33:08;19.00;84.10
68485;DHT22;55472;50.060;21.960;2022-08-01T08:35:34;19.30;82.50
68485;DHT22;55472;50.060;21.960;2022-08-01T08:38:00;19.70;81.40
68485;DHT22;55472;50.060;21.960;2022-08-01T08:40:29;20.00;80.50
68485;DHT22;55472;50.060;21.960;2022-08-01T08:42:58;20.30;79.00
68485;DHT22;55472;50.060;21.960;2022-08-01T08:45:26;20.60;77.80
68485;DHT22;55472;50.060;21.960;2022-08-01T08:47:53;20.60;76.80
68485;DHT22;55472;50.060;21.960;2022-08-01T08:50:20;20.60;76.10
68485;DHT22;55472;50.060;21.960;2022-08-01T08:52:46;20.50;76.60
68485;DHT22;55472;50.060;21.960;2022-08-01T08:55:16;20.60;76.30
68485;DHT22;55472;50.060;21.960;2022-08-01T08:57:44;20.80;75.40
68485;DHT22;55472;50.060;21.960;2022-08-01T09:00:10;20.90;75.20
68485;DHT22;55472;50.060;21.960;2022-08-01T09:02:42;21.00;74.40
68485;DHT22;55472;50.060;21.960;2022-08-01T09:05:09;21.40;74.00
68485;DHT22;55472;50.060;21.960;2022-08-01T09:07:35;22.60;70.70
68485;DHT22;55472;50.060;21.960;2022-08-01T09:10:02;23.50;66.80
68485;DHT22;55472;50.060;21.960;2022-08-01T09:12:28;23.70;65.40
68485;DHT22;55472;50.060;21.960;2022-08-01T09:14:54;23.60;64.10
68485;DHT22;55472;50.060;21.960;2022-08-01T09:17:20;23.30;64.40
68485;DHT22;55472;50.060;21.960;2022-08-01T09:19:52;23.20;64.00
68485;DHT22;55472;50.060;21.960;2022-08-01T09:22:21;23.30;64.40
68485;DHT22;55472;50.060;21.960;2022-08-01T09:25:10;23.30;63.90
68485;DHT22;55472;50.060;21.960;2022-08-01T09:27:37;23.50;64.90
68485;DHT22;55472;50.060;21.960;2022-08-01T09:30:16;24.30;63.40
68485;DHT22;55472;50.060;21.960;2022-08-01T09:32:55;24.60;61.70
68485;DHT22;55472;50.060;21.960;2022-08-01T09:35:30;24.90;60.90
68485;DHT22;55472;50.060;21.960;2022-08-01T09:38:21;25.00;59.90
68485;DHT22;55472;50.060;21.960;2022-08-01T09:40:53;25.30;58.00
68485;DHT22;55472;50.060;21.960;2022-08-01T09:45:49;26.00;56.40
68485;DHT22;55472;50.060;21.960;2022-08-01T09:48:15;25.50;57.60
68485;DHT22;55472;50.060;21.960;2022-08-01T09:50:43;25.80;57.50
68485;DHT22;55472;50.060;21.960;2022-08-01T09:53:13;26.20;55.50
68485;DHT22;55472;50.060;21.960;2022-08-01T09:55:41;26.90;55.10
68485;DHT22;55472;50.060;21.960;2022-08-01T09:58:08;27.60;53.20
68485;DHT22;55472;50.060;21.960;2022-08-01T10:00:36;28.00;51.90
68485;DHT22;55472;50.060;21.960;2022-08-01T10:03:23;28.20;51.40
68485;DHT22;55472;50.060;21.960;2022-08-01T10:05:51;28.70;51.40
68485;DHT22;55472;50.060;21.960;2022-08-01T10:08:19;29.70;48.80
68485;DHT22;55472;50.060;21.960;2022-08-01T10:11:11;29.90;47.20
68485;DHT22;55472;50.060;21.960;2022-08-01T10:13:38;30.70;47.00
68485;DHT22;55472;50.060;21.960;2022-08-01T10:16:05;31.30;44.70
68485;DHT22;55472;50.060;21.960;2022-08-01T10:18:34;31.70;43.00
68485;DHT22;55472;50.060;21.960;2022-08-01T10:21:04;31.90;41.90
68485;DHT22;55472;50.060;21.960;2022-08-01T10:23:34;31.50;43.00
68485;DHT22;55472;50.060;21.960;2022-08-01T10:26:02;31.40;44.30
68485;DHT22;55472;50.060;21.960;2022-08-01T10:28:31;31.40;43.30
68485;DHT22;55472;50.060;21.960;2022-08-01T10:31:00;31.20;43.00
68485;DHT22;55472;50.060;21.960;2022-08-01T10:33:28;31.00;43.20
68485;DHT22;55472;50.060;21.960;2022-08-01T10:35:55;30.60;44.50
68485;DHT22;55472;50.060;21.960;2022-08-01T10:38:22;30.10;45.80
68485;DHT22;55472;50.060;21.960;2022-08-01T10:40:49;29.80;45.60
68485;DHT22;55472;50.060;21.960;2022-08-01T10:43:16;29.40;46.70
68485;DHT22;55472;50.060;21.960;2022-08-01T10:45:43;29.10;47.40
68485;DHT22;55472;50.060;21.960;2022-08-01T10:48:14;28.70;48.00
68485;DHT22;55472;50.060;21.960;2022-08-01T10:50:49;28.40;48.40
68485;DHT22;55472;50.060;21.960;2022-08-01T11:00:48;27.20;51.80
68485;DHT22;55472;50.060;21.960;2022-08-01T11:03:14;27.20;51.80
68485;DHT22;55472;50.060;21.960;2022-08-01T11:05:42;27.30;50.80
68485;DHT22;55472;50.060;21.960;2022-08-01T11:08:10;27.40;51.70
68485;DHT22;55472;50.060;21.960;2022-08-01T11:10:47;27.60;49.90
68485;DHT22;55472;50.060;21.960;2022-08-01T11:13:13;27.80;48.80
68485;DHT22;55472;50.060;21.960;2022-08-01T11:15:40;27.90;49.40
68485;DHT22;55472;50.060;21.960;2022-08-01T11:20:59;28.10;49.20
68485;DHT22;55472;50.060;21.960;2022-08-01T11:23:28;28.20;48.10
68485;DHT22;55472;50.060;21.960;2022-08-01T11:28:28;28.30;46.80
68485;DHT22;55472;50.060;21.960;2022-08-01T11:39:10;28.40;47.20
68485;DHT22;55472;50.060;21.960;2022-08-01T11:41:37;28.40;47.70
68485;DHT22;55472;50.060;21.960;2022-08-01T11:47:01;28.40;48.10
68485;DHT22;55472;50.060;21.960;2022-08-01T11:52:43;28.20;48.50
68485;DHT22;55472;50.060;21.960;2022-08-01T11:55:08;28.20;47.80
68485;DHT22;55472;50.060;21.960;2022-08-01T11:57:35;28.10;47.90
68485;DHT22;55472;50.060;21.960;2022-08-01T12:00:17;28.10;48.10
68485;DHT22;55472;50.060;21.960;2022-08-01T12:02:45;28.00;48.10
68485;DHT22;55472;50.060;21.960;2022-08-01T12:05:16;27.80;49.40
68485;DHT22;55472;50.060;21.960;2022-08-01T12:07:50;27.80;49.80
68485;DHT22;55472;50.060;21.960;2022-08-01T12:10:21;27.60;49.80
68485;DHT22;55472;50.060;21.960;2022-08-01T12:12:51;27.50;50.50
68485;DHT22;55472;50.060;21.960;2022-08-01T12:15:20;27.50;50.60
68485;DHT22;55472;50.060;21.960;2022-08-01T12:17:51;27.40;50.60
68485;DHT22;55472;50.060;21.960;2022-08-01T12:20:22;27.40;50.90
68485;DHT22;55472;50.060;21.960;2022-08-01T12:22:56;27.10;51.20
68485;DHT22;55472;50.060;21.960;2022-08-01T12:25:24;27.00;51.60
68485;DHT22;55472;50.060;21.960;2022-08-01T12:27:50;27.00;50.30
68485;DHT22;55472;50.060;21.960;2022-08-01T12:30:20;26.90;51.60
68485;DHT22;55472;50.060;21.960;2022-08-01T12:32:51;26.80;50.60
68485;DHT22;55472;50.060;21.960;2022-08-01T12:35:27;26.80;51.00
68485;DHT22;55472;50.060;21.960;2022-08-01T12:37:57;26.70;52.70
68485;DHT22;55472;50.060;21.960;2022-08-01T12:40:30;26.70;52.90
68485;DHT22;55472;50.060;21.960;2022-08-01T12:43:01;26.70;52.50
68485;DHT22;55472;50.060;21.960;2022-08-01T12:45:34;26.70;52.90
68485;DHT22;55472;50.060;21.960;2022-08-01T12:48:07;26.70;52.10
68485;DHT22;55472;50.060;21.960;2022-08-01T12:50:37;26.60;51.20
68485;DHT22;55472;50.060;21.960;2022-08-01T12:53:04;26.50;52.30
68485;DHT22;55472;50.060;21.960;2022-08-01T12:55:31;26.50;52.40
68485;DHT22;55472;50.060;21.960;2022-08-01T12:58:11;26.50;52.40
68485;DHT22;55472;50.060;21.960;2022-08-01T13:00:40;26.40;52.30
68485;DHT22;55472;50.060;21.960;2022-08-01T13:03:10;26.40;52.10
68485;DHT22;55472;50.060;21.960;2022-08-01T13:05:49;26.40;51.70
68485;DHT22;55472;50.060;21.960;2022-08-01T13:08:20;26.30;51.80
68485;DHT22;55472;50.060;21.960;2022-08-01T13:10:55;26.30;50.80
68485;DHT22;55472;50.060;21.960;2022-08-01T13:14:03;26.20;51.30
68485;DHT22;55472;50.060;21.960;2022-08-01T13:16:30;26.20;52.30
68485;DHT22;55472;50.060;21.960;2022-08-01T13:18:56;26.20;52.60
68485;DHT22;55472;50.060;21.960;2022-08-01T13:21:27;26.20;53.10
68485;DHT22;55472;50.060;21.960;2022-08-01T13:29:32;26.00;52.70
68485;DHT22;55472;50.060;21.960;2022-08-01T13:34:39;26.10;53.20
68485;DHT22;55472;50.060;21.960;2022-08-01T13:37:05;26.10;53.60
68485;DHT22;55472;50.060;21.960;2022-08-01T13:39:31;26.10;53.00
68485;DHT22;55472;50.060;21.960;2022-08-01T13:42:07;26.20;52.20
68485;DHT22;55472;50.060;21.960;2022-08-01T13:44:34;26.20;52.40
68485;DHT22;55472;50.060;21.960;2022-08-01T13:47:00;26.20;52.30
68485;DHT22;55472;50.060;21.960;2022-08-01T13:49:27;26.10;52.10
68485;DHT22;55472;50.060;21.960;2022-08-01T13:51:53;26.10;53.00
68485;DHT22;55472;50.060;21.960;2022-08-01T13:54:19;26.20;53.40
68485;DHT22;55472;50.060;21.960;2022-08-01T13:56:45;26.10;53.20
68485;DHT22;55472;50.060;21.960;2022-08-01T13:59:12;26.10;53.50
68485;DHT22;55472;50.060;21.960;2022-08-01T14:01:38;26.00;52.90
68485;DHT22;55472;50.060;21.960;2022-08-01T14:04:04;26.00;51.90
68485;DHT22;55472;50.060;21.960;2022-08-01T14:06:31;26.00;52.30
68485;DHT22;55472;50.060;21.960;2022-08-01T14:08:58;26.00;52.90
68485;DHT22;55472;50.060;21.960;2022-08-01T14:11:24;25.90;52.90
68485;DHT22;55472;50.060;21.960;2022-08-01T14:13:50;25.90;53.30
68485;DHT22;55472;50.060;21.960;2022-08-01T14:16:17;25.90;53.20
68485;DHT22;55472;50.060;21.960;2022-08-01T14:18:43;26.00;53.40
68485;DHT22;55472;50.060;21.960;2022-08-01T14:21:09;26.00;53.10
68485;DHT22;55472;50.060;21.960;2022-08-01T14:23:35;26.00;52.90
68485;DHT22;55472;50.060;21.960;2022-08-01T14:26:01;26.00;52.80
68485;DHT22;55472;50.060;21.960;2022-08-01T14:28:27;26.00;52.80
68485;DHT22;55472;50.060;21.960;2022-08-01T14:30:54;26.00;53.30
68485;DHT22;55472;50.060;21.960;2022-08-01T14:33:21;26.00;53.60
68485;DHT22;55472;50.060;21.960;2022-08-01T14:35:47;26.00;53.00
68485;DHT22;55472;50.060;21.960;2022-08-01T14:38:13;26.00;53.40
68485;DHT22;55472;50.060;21.960;2022-08-01T14:40:39;26.00;53.40
68485;DHT22;55472;50.060;21.960;2022-08-01T14:43:06;26.00;53.40
68485;DHT22;55472;50.060;21.960;2022-08-01T14:45:32;26.00;53.60
68485;DHT22;55472;50.060;21.960;2022-08-01T14:47:58;26.10;54.00
68485;DHT22;55472;50.060;21.960;2022-08-01T14:50:25;26.10;53.00
68485;DHT22;55472;50.060;21.960;2022-08-01T14:52:53;26.10;53.10
68485;DHT22;55472;50.060;21.960;2022-08-01T14:55:20;26.10;52.80
68485;DHT22;55472;50.060;21.960;2022-08-01T14:57:49;26.10;52.70
68485;DHT22;55472;50.060;21.960;2022-08-01T15:00:15;26.10;53.00
68485;DHT22;55472;50.060;21.960;2022-08-01T15:02:42;26.10;53.50
68485;DHT22;55472;50.060;21.960;2022-08-01T15:05:08;26.00;53.60
68485;DHT22;55472;50.060;21.960;2022-08-01T15:07:36;25.90;53.70
68485;DHT22;55472;50.060;21.960;2022-08-01T15:10:04;25.90;54.00
68485;DHT22;55472;50.060;21.960;2022-08-01T15:12:31;25.80;54.40
68485;DHT22;55472;50.060;21.960;2022-08-01T15:14:57;25.80;54.00
68485;DHT22;55472;50.060;21.960;2022-08-01T15:17:28;25.70;55.00
68485;DHT22;55472;50.060;21.960;2022-08-01T15:20:00;25.80;54.10
68485;DHT22;55472;50.060;21.960;2022-08-01T15:22:31;25.70;53.80
68485;DHT22;55472;50.060;21.960;2022-08-01T15:25:11;25.70;53.10
68485;DHT22;55472;50.060;21.960;2022-08-01T15:27:37;25.70;53.50
68485;DHT22;55472;50.060;21.960;2022-08-01T15:30:03;25.70;52.90
68485;DHT22;55472;50.060;21.960;2022-08-01T15:32:29;25.70;53.90
68485;DHT22;55472;50.060;21.960;2022-08-01T15:34:55;25.70;53.40
68485;DHT22;55472;50.060;21.960;2022-08-01T15:37:21;25.70;52.40
68485;DHT22;55472;50.060;21.960;2022-08-01T15:39:48;25.60;52.70
68485;DHT22;55472;50.060;21.960;2022-08-01T15:42:15;25.60;53.20
68485;DHT22;55472;50.060;21.960;2022-08-01T15:44:43;25.60;53.80
68485;DHT22;55472;50.060;21.960;2022-08-01T15:47:09;25.50;53.20
68485;DHT22;55472;50.060;21.960;2022-08-01T15:49:36;25.50;53.80
68485;DHT22;55472;50.060;21.960;2022-08-01T15:52:04;25.50;53.80
68485;DHT22;55472;50.060;21.960;2022-08-01T15:54:30;25.50;53.90
68485;DHT22;55472;50.060;21.960;2022-08-01T15:56:56;25.50;54.20
68485;DHT22;55472;50.060;21.960;2022-08-01T15:59:22;25.50;54.40
68485;DHT22;55472;50.060;21.960;2022-08-01T16:01:48;25.50;53.60
68485;DHT22;55472;50.060;21.960;2022-08-01T16:04:15;25.40;53.00
68485;DHT22;55472;50.060;21.960;2022-08-01T16:06:44;25.30;53.00
68485;DHT22;55472;50.060;21.960;2022-08-01T16:09:10;25.30;53.20
68485;DHT22;55472;50.060;21.960;2022-08-01T16:11:36;25.20;53.20